createdAt,value
2017-12-01T00:02:09.794Z,2.10
2017-12-01T00:04:37.264Z,2.10
2017-12-01T00:07:04.989Z,2.10
2017-12-01T00:09:32.459Z,2.10
2017-12-01T00:11:59.927Z,2.10
2017-12-01T00:14:27.406Z,2.00
2017-12-01T00:16:54.859Z,2.00
2017-12-01T00:19:22.317Z,1.90
2017-12-01T00:21:49.777Z,1.80
2017-12-01T00:24:17.234Z,1.80
2017-12-01T00:26:44.695Z,1.80
2017-12-01T00:29:12.915Z,1.80
2017-12-01T00:31:40.429Z,1.80
2017-12-01T00:34:07.876Z,1.90
2017-12-01T00:36:35.334Z,1.80
2017-12-01T00:39:02.857Z,1.80
2017-12-01T00:41:30.293Z,1.80
2017-12-01T00:43:57.801Z,1.80
2017-12-01T00:46:25.243Z,1.80
2017-12-01T00:48:52.700Z,1.70
2017-12-01T00:51:20.900Z,1.80
2017-12-01T00:53:48.379Z,1.80
2017-12-01T00:56:15.823Z,1.80
2017-12-01T00:58:43.263Z,1.90
2017-12-01T01:01:10.708Z,2.00
2017-12-01T01:03:38.248Z,2.00
2017-12-01T01:06:05.692Z,1.80
2017-12-01T01:08:33.122Z,1.70
2017-12-01T01:11:00.560Z,1.60
2017-12-01T01:13:28.009Z,1.50
2017-12-01T01:15:55.444Z,1.40
2017-12-01T01:18:22.894Z,1.30
2017-12-01T01:20:50.334Z,1.30
2017-12-01T01:23:17.797Z,1.40
2017-12-01T01:25:45.393Z,1.40
2017-12-01T01:28:12.890Z,1.50
2017-12-01T01:30:40.337Z,1.40
2017-12-01T01:33:07.772Z,1.20
2017-12-01T01:35:35.207Z,1.10
2017-12-01T01:38:02.663Z,1.10
2017-12-01T01:40:30.112Z,1.20
2017-12-01T01:42:57.652Z,1.10
2017-12-01T01:45:25.092Z,1.10
2017-12-01T01:47:52.537Z,1.10
2017-12-01T01:50:20.072Z,1.10
2017-12-01T01:52:47.507Z,1.10
2017-12-01T01:55:14.970Z,1.20
2017-12-01T01:57:42.409Z,1.20
2017-12-01T02:00:09.865Z,1.10
2017-12-01T02:02:38.068Z,1.10
2017-12-01T02:05:05.508Z,1.10
2017-12-01T02:07:32.954Z,1.10
2017-12-01T02:10:00.388Z,1.10
2017-12-01T02:12:27.875Z,1.10
2017-12-01T02:14:55.360Z,1.10
2017-12-01T02:17:23.592Z,1.10
2017-12-01T02:19:51.027Z,1.10
2017-12-01T02:22:18.568Z,1.20
2017-12-01T02:24:46.004Z,1.20
2017-12-01T02:27:13.527Z,1.10
2017-12-01T02:29:40.991Z,1.10
2017-12-01T02:32:10.058Z,0.90
2017-12-01T02:34:37.377Z,0.90
2017-12-01T02:37:04.816Z,0.90
2017-12-01T02:39:32.259Z,1.00
2017-12-01T02:41:59.744Z,1.10
2017-12-01T02:44:27.253Z,1.10
2017-12-01T02:46:54.687Z,1.10
2017-12-01T02:49:22.175Z,1.10
2017-12-01T02:51:49.716Z,1.10
2017-12-01T02:54:17.168Z,1.20
2017-12-01T02:56:44.752Z,1.20
2017-12-01T02:59:13.068Z,1.20
2017-12-01T03:01:40.500Z,1.10
2017-12-01T03:04:07.949Z,1.20
2017-12-01T03:06:35.395Z,1.20
2017-12-01T03:09:02.863Z,1.20
2017-12-01T03:11:31.177Z,1.10
2017-12-01T03:13:58.612Z,1.10
2017-12-01T03:16:26.052Z,1.10
2017-12-01T03:18:53.528Z,1.10
2017-12-01T03:21:21.006Z,1.10
2017-12-01T03:23:48.525Z,1.20
2017-12-01T03:26:16.016Z,1.10
2017-12-01T03:28:43.411Z,1.10
2017-12-01T03:31:10.844Z,1.00
2017-12-01T03:33:38.305Z,1.00
2017-12-01T03:36:05.744Z,1.00
2017-12-01T03:38:33.183Z,1.00
2017-12-01T03:41:00.659Z,1.00
2017-12-01T03:43:28.921Z,0.90
2017-12-01T03:45:56.384Z,0.90
2017-12-01T03:48:23.833Z,0.90
2017-12-01T03:50:51.273Z,0.90
2017-12-01T03:53:18.725Z,0.90
2017-12-01T03:55:46.205Z,0.90
2017-12-01T03:58:13.644Z,0.90
2017-12-01T04:00:41.081Z,1.00
2017-12-01T04:03:08.527Z,1.00
2017-12-01T04:05:35.952Z,1.00
2017-12-01T04:08:03.397Z,0.90
2017-12-01T04:10:30.855Z,1.00
2017-12-01T04:12:58.301Z,0.90
2017-12-01T04:15:25.732Z,0.90
2017-12-01T04:17:53.163Z,0.90
2017-12-01T04:20:20.608Z,0.90
2017-12-01T04:22:48.079Z,0.90
2017-12-01T04:25:15.616Z,0.80
2017-12-01T04:27:43.040Z,0.80
2017-12-01T04:30:10.501Z,0.70
2017-12-01T04:32:37.936Z,0.70
2017-12-01T04:35:05.359Z,0.70
2017-12-01T04:37:32.816Z,0.70
2017-12-01T04:40:00.292Z,0.70
2017-12-01T04:42:27.812Z,0.70
2017-12-01T04:44:55.258Z,0.70
2017-12-01T04:47:22.714Z,0.60
2017-12-01T04:49:50.131Z,0.60
2017-12-01T04:52:17.577Z,0.50
2017-12-01T04:54:45.017Z,0.60
2017-12-01T04:57:12.448Z,0.70
2017-12-01T04:59:39.899Z,0.70
2017-12-01T05:02:07.680Z,0.80
2017-12-01T05:04:35.933Z,0.90
2017-12-01T05:07:03.461Z,0.90
2017-12-01T05:09:30.900Z,0.90
2017-12-01T05:11:58.336Z,0.90
2017-12-01T05:14:25.776Z,0.90
2017-12-01T05:16:54.225Z,0.90
2017-12-01T05:19:21.687Z,0.90
2017-12-01T05:21:49.140Z,0.80
2017-12-01T05:24:16.655Z,0.90
2017-12-01T05:26:44.151Z,0.90
2017-12-01T05:29:12.380Z,0.90
2017-12-01T05:31:39.939Z,0.80
2017-12-01T05:34:07.392Z,0.90
2017-12-01T05:36:35.644Z,0.80
2017-12-01T05:39:03.083Z,0.80
2017-12-01T05:41:30.521Z,0.90
2017-12-01T05:43:57.967Z,0.90
2017-12-01T05:46:25.423Z,1.00
2017-12-01T05:48:52.857Z,1.00
2017-12-01T05:51:20.307Z,0.90
2017-12-01T05:53:47.809Z,1.00
2017-12-01T05:56:15.257Z,1.00
2017-12-01T05:58:42.701Z,1.10
2017-12-01T06:01:10.149Z,1.10
2017-12-01T06:03:37.608Z,1.10
2017-12-01T06:06:05.036Z,1.10
2017-12-01T06:08:32.492Z,1.10
2017-12-01T06:11:00.041Z,1.10
2017-12-01T06:13:27.570Z,1.10
2017-12-01T06:15:55.005Z,1.10
2017-12-01T06:18:22.448Z,1.10
2017-12-01T06:20:49.913Z,1.20
2017-12-01T06:23:18.862Z,1.20
2017-12-01T06:25:46.336Z,1.20
2017-12-01T06:28:13.784Z,1.30
2017-12-01T06:30:41.327Z,1.30
2017-12-01T06:33:09.774Z,1.40
2017-12-01T06:35:37.243Z,1.40
2017-12-01T06:38:06.580Z,1.30
2017-12-01T06:40:34.031Z,1.30
2017-12-01T06:43:01.464Z,1.40
2017-12-01T06:45:28.896Z,1.40
2017-12-01T06:47:56.349Z,1.30
2017-12-01T06:50:23.943Z,1.30
2017-12-01T06:52:52.171Z,1.20
2017-12-01T06:55:20.121Z,1.20
2017-12-01T06:57:47.580Z,1.30
2017-12-01T07:00:15.071Z,1.30
2017-12-01T07:02:42.517Z,1.30
2017-12-01T07:05:09.963Z,1.30
2017-12-01T07:07:37.416Z,1.40
2017-12-01T07:10:04.866Z,1.40
2017-12-01T07:12:32.306Z,1.50
2017-12-01T07:14:59.784Z,1.60
2017-12-01T07:17:27.217Z,1.70
2017-12-01T07:19:54.681Z,1.80
2017-12-01T07:22:22.113Z,1.80
2017-12-01T07:24:49.554Z,1.90
2017-12-01T07:27:17.014Z,1.80
2017-12-01T07:29:44.449Z,1.90
2017-12-01T07:32:11.992Z,1.90
2017-12-01T07:34:39.430Z,2.00
2017-12-01T07:37:06.949Z,2.10
2017-12-01T07:39:34.421Z,2.10
2017-12-01T07:42:01.961Z,2.10
2017-12-01T07:44:35.083Z,2.20
2017-12-01T07:47:02.512Z,2.20
2017-12-01T07:49:30.724Z,2.30
2017-12-01T07:51:58.165Z,2.30
2017-12-01T07:54:25.637Z,2.40
2017-12-01T07:56:53.056Z,2.30
2017-12-01T07:59:20.587Z,2.40
2017-12-01T08:01:48.025Z,2.50
2017-12-01T08:04:15.457Z,2.50
2017-12-01T08:06:42.895Z,2.60
2017-12-01T08:09:10.328Z,2.60
2017-12-01T08:11:37.790Z,2.60
2017-12-01T08:14:05.245Z,2.70
2017-12-01T08:16:44.653Z,2.60
2017-12-01T08:19:12.135Z,2.60
2017-12-01T08:24:49.151Z,2.60
2017-12-01T08:27:18.694Z,2.60
2017-12-01T08:29:46.917Z,2.50
2017-12-01T08:32:14.350Z,2.60
2017-12-01T08:34:41.789Z,2.60
2017-12-01T08:37:09.221Z,2.80
2017-12-01T08:39:36.655Z,2.80
2017-12-01T08:42:04.082Z,2.80
2017-12-01T08:44:31.518Z,2.80
2017-12-01T08:46:58.952Z,2.90
2017-12-01T08:49:27.192Z,3.20
2017-12-01T08:51:54.617Z,3.20
2017-12-01T08:54:22.056Z,3.30
2017-12-01T08:56:49.500Z,3.40
2017-12-01T08:59:16.913Z,3.40
2017-12-01T09:01:44.469Z,3.40
2017-12-01T09:04:11.940Z,3.10
2017-12-01T09:06:39.408Z,3.10
2017-12-01T09:09:07.605Z,3.20
2017-12-01T09:11:35.042Z,3.20
2017-12-01T09:14:02.476Z,3.20
2017-12-01T09:16:29.942Z,3.30
2017-12-01T09:18:57.365Z,3.50
2017-12-01T09:21:24.796Z,3.60
2017-12-01T09:23:52.991Z,3.60
2017-12-01T09:26:20.420Z,3.50
2017-12-01T09:28:47.869Z,3.50
2017-12-01T09:31:16.071Z,3.50
2017-12-01T09:33:43.627Z,3.50
2017-12-01T09:36:11.054Z,3.60
2017-12-01T09:38:38.511Z,3.50
2017-12-01T09:41:05.973Z,3.50
2017-12-01T09:43:33.440Z,3.50
2017-12-01T09:46:00.893Z,3.50
2017-12-01T09:48:29.252Z,3.40
2017-12-01T09:50:57.508Z,3.50
2017-12-01T09:53:24.927Z,3.40
2017-12-01T09:55:52.355Z,3.40
2017-12-01T09:58:19.813Z,3.40
2017-12-01T10:00:48.315Z,3.40
2017-12-01T10:03:16.624Z,3.50
2017-12-01T10:05:44.071Z,3.50
2017-12-01T10:08:11.517Z,3.50
2017-12-01T10:10:38.979Z,3.60
2017-12-01T10:13:06.416Z,3.60
2017-12-01T10:15:33.880Z,3.60
2017-12-01T10:18:01.291Z,3.70
2017-12-01T10:20:28.749Z,3.80
2017-12-01T10:22:56.264Z,3.90
2017-12-01T10:25:23.732Z,3.90
2017-12-01T10:27:51.166Z,3.90
2017-12-01T10:30:18.595Z,3.90
2017-12-01T10:32:46.096Z,3.90
2017-12-01T10:35:13.625Z,3.80
2017-12-01T10:37:41.079Z,3.90
2017-12-01T10:40:08.505Z,3.90
2017-12-01T10:42:35.948Z,4.00
2017-12-01T10:45:03.385Z,4.00
2017-12-01T10:47:31.752Z,4.00
2017-12-01T10:49:59.220Z,4.00
2017-12-01T10:52:26.668Z,4.00
2017-12-01T10:54:54.210Z,4.10
2017-12-01T10:57:21.733Z,4.10
2017-12-01T10:59:49.223Z,4.20
2017-12-01T11:02:17.699Z,4.40
2017-12-01T11:04:45.893Z,4.50
2017-12-01T11:07:13.319Z,4.40
2017-12-01T11:09:40.812Z,4.50
2017-12-01T11:12:08.249Z,4.40
2017-12-01T11:14:35.683Z,4.30
2017-12-01T11:17:03.225Z,4.30
2017-12-01T11:19:30.660Z,4.50
2017-12-01T11:21:58.085Z,4.50
2017-12-01T11:24:25.515Z,4.70
2017-12-01T11:26:53.006Z,4.90
2017-12-01T11:29:20.442Z,5.00
2017-12-01T11:31:47.933Z,5.00
2017-12-01T11:34:15.441Z,4.90
2017-12-01T11:36:42.868Z,4.90
2017-12-01T11:39:10.298Z,5.00
2017-12-01T11:41:37.797Z,4.90
2017-12-01T11:44:06.133Z,4.70
2017-12-01T11:46:33.596Z,4.70
2017-12-01T11:49:01.044Z,4.80
2017-12-01T11:51:28.540Z,4.90
2017-12-01T11:53:55.956Z,5.00
2017-12-01T11:56:24.266Z,5.10
2017-12-01T11:58:51.732Z,5.10
2017-12-01T12:01:19.276Z,5.20
2017-12-01T12:03:46.745Z,5.20
2017-12-01T12:06:14.176Z,5.20
2017-12-01T12:08:41.706Z,5.20
2017-12-01T12:11:09.144Z,5.00
2017-12-01T12:13:36.597Z,4.80
2017-12-01T12:16:04.117Z,4.80
2017-12-01T12:18:31.536Z,4.60
2017-12-01T12:20:58.968Z,4.40
2017-12-01T12:23:26.464Z,4.50
2017-12-01T12:25:53.907Z,4.50
2017-12-01T12:28:21.424Z,4.60
2017-12-01T12:30:48.843Z,4.60
2017-12-01T12:33:16.297Z,4.60
2017-12-01T12:35:43.938Z,4.50
2017-12-01T12:38:11.412Z,4.50
2017-12-01T12:40:38.957Z,4.40
2017-12-01T12:43:06.392Z,4.30
2017-12-01T12:45:34.600Z,3.80
2017-12-01T12:48:02.064Z,3.80
2017-12-01T12:50:29.520Z,3.90
2017-12-01T12:52:56.976Z,3.90
2017-12-01T12:55:24.412Z,3.60
2017-12-01T12:57:51.868Z,3.50
2017-12-01T13:00:19.423Z,3.20
2017-12-01T13:02:46.854Z,3.20
2017-12-01T13:05:14.291Z,3.40
2017-12-01T13:07:41.766Z,3.60
2017-12-01T13:10:09.951Z,3.50
2017-12-01T13:12:37.443Z,3.40
2017-12-01T13:15:04.881Z,3.50
2017-12-01T13:17:32.304Z,3.60
2017-12-01T13:19:59.731Z,3.50
2017-12-01T13:22:27.172Z,3.20
2017-12-01T13:24:54.600Z,3.00
2017-12-01T13:27:22.066Z,3.00
2017-12-01T13:29:49.632Z,2.90
2017-12-01T13:32:17.049Z,3.00
2017-12-01T13:34:44.471Z,3.20
2017-12-01T13:37:11.904Z,3.40
2017-12-01T13:39:39.332Z,3.30
2017-12-01T13:42:06.784Z,3.40
2017-12-01T13:44:34.211Z,3.30
2017-12-01T13:47:01.688Z,3.20
2017-12-01T13:49:29.144Z,3.10
2017-12-01T13:51:57.362Z,3.00
2017-12-01T13:54:24.848Z,3.20
2017-12-01T13:56:52.280Z,3.10
2017-12-01T13:59:19.740Z,3.10
2017-12-01T14:01:47.176Z,3.00
2017-12-01T14:04:15.405Z,3.10
2017-12-01T14:06:42.838Z,3.10
2017-12-01T14:09:10.324Z,2.90
2017-12-01T14:11:37.795Z,2.70
2017-12-01T14:14:05.289Z,2.80
2017-12-01T14:16:32.838Z,3.00
2017-12-01T14:19:00.277Z,3.00
2017-12-01T14:21:27.760Z,3.00
2017-12-01T14:23:56.049Z,3.00
2017-12-01T14:26:23.652Z,2.90
2017-12-01T14:28:51.116Z,3.10
2017-12-01T14:31:18.640Z,3.00
2017-12-01T14:33:46.077Z,3.00
2017-12-01T14:36:13.520Z,3.10
2017-12-01T14:38:40.957Z,3.20
2017-12-01T14:41:09.171Z,3.00
2017-12-01T14:43:36.766Z,3.00
2017-12-01T14:46:04.192Z,2.90
2017-12-01T14:48:32.412Z,2.70
2017-12-01T14:50:59.856Z,2.80
2017-12-01T14:53:27.280Z,2.70
2017-12-01T14:55:55.499Z,2.70
2017-12-01T14:58:23.068Z,2.70
2017-12-01T15:00:50.504Z,2.70
2017-12-01T15:03:17.932Z,2.70
2017-12-01T15:05:45.388Z,2.70
2017-12-01T15:08:12.847Z,2.70
2017-12-01T15:10:40.272Z,2.80
2017-12-01T15:13:07.712Z,2.70
2017-12-01T15:15:35.166Z,2.70
2017-12-01T15:18:02.617Z,2.70
2017-12-01T15:20:30.063Z,2.80
2017-12-01T15:22:57.511Z,2.80
2017-12-01T15:25:24.953Z,2.80
2017-12-01T15:27:52.384Z,2.70
2017-12-01T15:30:19.848Z,2.60
2017-12-01T15:32:47.300Z,2.60
2017-12-01T15:35:14.753Z,2.60
2017-12-01T15:37:43.668Z,2.60
2017-12-01T15:40:11.157Z,2.60
2017-12-01T15:42:38.665Z,2.50
2017-12-01T15:45:06.104Z,2.40
2017-12-01T15:47:33.569Z,2.40
2017-12-01T15:50:01.009Z,2.50
2017-12-01T15:52:28.476Z,2.40
2017-12-01T15:54:56.716Z,2.40
2017-12-01T15:57:24.164Z,2.40
2017-12-01T15:59:51.701Z,2.40
2017-12-01T16:02:19.145Z,2.40
2017-12-01T16:04:46.580Z,2.50
2017-12-01T16:07:14.033Z,2.50
2017-12-01T16:09:41.468Z,2.50
2017-12-01T16:12:08.916Z,2.60
2017-12-01T16:14:36.343Z,2.60
2017-12-01T16:17:03.815Z,2.40
2017-12-01T16:19:31.305Z,2.40
2017-12-01T16:21:58.696Z,2.30
2017-12-01T16:24:26.148Z,2.40
2017-12-01T16:26:54.343Z,2.40
2017-12-01T16:29:21.920Z,2.40
2017-12-01T16:31:49.414Z,2.50
2017-12-01T16:34:17.642Z,2.30
2017-12-01T16:36:45.081Z,2.30
2017-12-01T16:39:12.516Z,2.20
2017-12-01T16:41:39.959Z,2.20
2017-12-01T16:44:07.425Z,2.10
2017-12-01T16:46:34.859Z,2.00
2017-12-01T16:49:02.316Z,2.00
2017-12-01T16:51:29.751Z,1.90
2017-12-01T16:53:57.192Z,2.00
2017-12-01T16:56:24.871Z,2.00
2017-12-01T16:58:53.073Z,1.90
2017-12-01T17:01:20.505Z,1.90
2017-12-01T17:03:47.939Z,2.00
2017-12-01T17:06:15.382Z,1.90
2017-12-01T17:08:42.888Z,1.90
2017-12-01T17:11:10.329Z,2.00
2017-12-01T17:13:37.799Z,2.10
2017-12-01T17:16:05.304Z,2.20
2017-12-01T17:18:32.744Z,2.20
2017-12-01T17:21:00.175Z,2.30
2017-12-01T17:23:27.621Z,2.30
2017-12-01T17:25:55.068Z,2.30
2017-12-01T17:28:23.282Z,2.30
2017-12-01T17:30:50.744Z,2.40
2017-12-01T17:33:18.171Z,2.30
2017-12-01T17:35:45.618Z,2.20
2017-12-01T17:38:13.052Z,2.10
2017-12-01T17:40:40.504Z,2.10
2017-12-01T17:43:07.936Z,2.10
2017-12-01T17:45:35.574Z,2.30
2017-12-01T17:48:03.005Z,2.30
2017-12-01T17:50:30.445Z,2.30
2017-12-01T17:52:57.888Z,2.30
2017-12-01T17:55:25.346Z,2.20
2017-12-01T17:57:53.284Z,2.00
2017-12-01T18:00:21.689Z,2.00
2017-12-01T18:02:49.072Z,2.00
2017-12-01T18:05:16.499Z,1.90
2017-12-01T18:07:44.720Z,1.90
2017-12-01T18:10:12.248Z,1.90
2017-12-01T18:12:39.711Z,1.70
2017-12-01T18:15:08.000Z,1.70
2017-12-01T18:17:36.223Z,1.80
2017-12-01T18:20:03.717Z,1.70
2017-12-01T18:22:31.905Z,1.70
2017-12-01T18:24:59.898Z,1.70
2017-12-01T18:27:27.332Z,1.60
2017-12-01T18:29:55.693Z,1.60
2017-12-01T18:32:23.207Z,1.50
2017-12-01T18:34:50.668Z,1.60
2017-12-01T18:37:18.169Z,1.70
2017-12-01T18:39:45.603Z,1.60
2017-12-01T18:42:13.052Z,1.60
2017-12-01T18:44:40.483Z,1.60
2017-12-01T18:47:07.925Z,1.50
2017-12-01T18:49:35.369Z,1.60
2017-12-01T18:52:02.850Z,1.60
2017-12-01T18:54:30.334Z,1.50
2017-12-01T18:56:57.786Z,1.40
2017-12-01T18:59:25.990Z,1.60
2017-12-01T19:01:53.499Z,1.60
2017-12-01T19:04:21.719Z,1.50
2017-12-01T19:06:49.916Z,1.70
2017-12-01T19:09:17.356Z,1.70
2017-12-01T19:11:44.795Z,1.60
2017-12-01T19:14:12.235Z,1.50
2017-12-01T19:16:39.685Z,1.30
2017-12-01T19:19:07.132Z,1.40
2017-12-01T19:21:34.561Z,1.40
2017-12-01T19:24:02.856Z,1.20
2017-12-01T19:26:30.328Z,1.20
2017-12-01T19:28:57.771Z,1.20
2017-12-01T19:31:25.246Z,1.20
2017-12-01T19:33:53.476Z,1.30
2017-12-01T19:36:22.501Z,1.30
2017-12-01T19:38:49.956Z,1.30
2017-12-01T19:41:17.425Z,1.30
2017-12-01T19:43:44.965Z,1.30
2017-12-01T19:46:12.524Z,1.20
2017-12-01T19:48:39.961Z,1.30
2017-12-01T19:51:07.416Z,1.30
2017-12-01T19:53:34.863Z,1.40
2017-12-01T19:56:02.391Z,1.20
2017-12-01T19:58:29.940Z,1.30
2017-12-01T20:00:57.412Z,1.30
2017-12-01T20:03:25.685Z,1.40
2017-12-01T20:05:53.907Z,1.60
2017-12-01T20:08:22.056Z,1.50
2017-12-01T20:10:49.530Z,1.40
2017-12-01T20:13:17.061Z,1.30
2017-12-01T20:15:44.499Z,1.40
2017-12-01T20:18:11.936Z,1.50
2017-12-01T20:20:39.372Z,1.50
2017-12-01T20:23:06.843Z,1.60
2017-12-01T20:25:35.116Z,1.50
2017-12-01T20:28:02.552Z,1.40
2017-12-01T20:30:30.030Z,1.50
2017-12-01T20:32:57.501Z,1.60
2017-12-01T20:35:25.781Z,1.40
2017-12-01T20:37:53.204Z,1.30
2017-12-01T20:40:20.661Z,1.30
2017-12-01T20:42:48.089Z,1.30
2017-12-01T20:45:15.515Z,1.30
2017-12-01T20:47:42.983Z,1.40
2017-12-01T20:50:10.425Z,1.40
2017-12-01T20:52:37.869Z,1.30
2017-12-01T20:55:05.307Z,1.20
2017-12-01T20:57:32.874Z,1.20
2017-12-01T21:00:01.064Z,0.90
2017-12-01T21:02:28.492Z,0.90
2017-12-01T21:04:55.936Z,1.00
2017-12-01T21:07:23.419Z,1.00
2017-12-01T21:09:51.962Z,1.00
2017-12-01T21:12:19.381Z,1.00
2017-12-01T21:14:46.828Z,1.00
2017-12-01T21:17:14.310Z,1.00
2017-12-01T21:19:41.773Z,0.90
2017-12-01T21:22:09.213Z,0.90
2017-12-01T21:24:36.649Z,0.90
2017-12-01T21:27:04.111Z,0.90
2017-12-01T21:29:31.536Z,0.90
2017-12-01T21:31:59.004Z,1.00
2017-12-01T21:34:27.274Z,0.80
2017-12-01T21:36:55.476Z,0.70
2017-12-01T21:39:22.908Z,0.70
2017-12-01T21:41:50.352Z,0.70
2017-12-01T21:44:17.791Z,0.80
2017-12-01T21:46:45.831Z,0.70
2017-12-01T21:49:13.288Z,0.70
2017-12-01T21:51:40.815Z,0.60
2017-12-01T21:54:09.017Z,0.60
2017-12-01T21:56:36.674Z,0.60
2017-12-01T21:59:04.104Z,0.60
2017-12-01T22:01:32.519Z,0.50
2017-12-01T22:03:59.960Z,0.50
2017-12-01T22:06:28.165Z,0.50
2017-12-01T22:09:08.656Z,0.50
2017-12-01T22:11:36.902Z,0.60
2017-12-01T22:14:04.364Z,0.60
2017-12-01T22:16:32.597Z,0.70
2017-12-01T22:19:00.067Z,0.70
2017-12-01T22:21:28.281Z,0.60
2017-12-01T22:23:55.716Z,0.60
2017-12-01T22:26:23.163Z,0.70
2017-12-01T22:28:50.697Z,0.70
2017-12-01T22:31:18.260Z,0.70
2017-12-01T22:33:45.689Z,0.70
2017-12-01T22:36:13.112Z,0.70
2017-12-01T22:38:40.584Z,0.70
2017-12-01T22:41:08.031Z,0.60
2017-12-01T22:43:36.268Z,0.50
2017-12-01T22:46:03.752Z,0.50
2017-12-01T22:48:31.240Z,0.60
2017-12-01T22:50:58.752Z,0.50
2017-12-01T22:53:26.201Z,0.40
2017-12-01T22:55:53.704Z,0.50
2017-12-01T22:58:21.135Z,0.50
2017-12-01T23:00:48.584Z,0.60
2017-12-01T23:03:16.018Z,0.70
2017-12-01T23:05:43.478Z,0.70
2017-12-01T23:08:11.087Z,0.80
2017-12-01T23:10:39.276Z,0.70
2017-12-01T23:13:06.732Z,0.70
2017-12-01T23:15:35.149Z,0.50
2017-12-01T23:18:03.355Z,0.40
2017-12-01T23:20:30.839Z,0.40
2017-12-01T23:22:58.302Z,0.50
2017-12-01T23:25:25.728Z,0.40
2017-12-01T23:27:53.927Z,0.40
2017-12-01T23:30:21.387Z,0.40
2017-12-01T23:32:48.856Z,0.40
2017-12-01T23:35:16.284Z,0.40
2017-12-01T23:37:43.716Z,0.40
2017-12-01T23:40:11.313Z,0.50
2017-12-01T23:42:39.510Z,0.60
2017-12-01T23:45:07.011Z,0.60
2017-12-01T23:47:34.433Z,0.60
2017-12-01T23:50:01.866Z,0.60
2017-12-01T23:52:29.304Z,0.60
2017-12-01T23:54:56.753Z,0.70
2017-12-01T23:57:24.358Z,0.60
2017-12-01T23:59:51.789Z,0.60
